Time;durP1;ratioP1;P1;durP2;ratioP2;P2;SDS_P1;SDS_P2;PMS_P1;PMS_P2;Temp;Humidity;BMP_temperature;BMP_pressure;BME280_temperature;BME280_humidity;BME280_pressure;Samples;Min_cycle;Max_cycle;Signal;HPM_P1;HPM_P2
2023/12/19 00:01:17;;;;;;;20.75;11.93;;;;;;;8.48;65.42;102560.63;6195563;23;20021;-75
2023/12/19 00:03:45;;;;;;;25.55;12.15;;;;;;;8.47;65.71;102564.31;6194992;23;20083;-74
2023/12/19 00:06:14;;;;;;;15.77;10.73;;;;;;;8.47;65.75;102561.63;6194240;23;20056;-74
2023/12/19 00:08:42;;;;;;;17.73;10.80;;;;;;;8.47;65.44;102564.31;6194622;23;20025;-73
2023/12/19 00:11:10;;;;;;;20.05;11.35;;;;;;;8.47;65.67;102558.09;6195691;23;20017;-74
2023/12/19 00:13:38;;;;;;;20.90;12.05;;;;;;;8.47;65.47;102553.59;6194345;23;20079;-73
2023/12/19 00:16:06;;;;;;;17.73;10.38;;;;;;;8.46;65.99;102551.06;6195002;23;20110;-74
2023/12/19 00:18:34;;;;;;;17.05;11.27;;;;;;;8.45;65.51;102550.22;6195448;23;20025;-71
2023/12/19 00:21:01;;;;;;;19.00;11.23;;;;;;;8.46;66.00;102546.56;6195340;23;20023;-73
2023/12/19 00:23:33;;;;;;;15.90;10.80;;;;;;;8.45;65.39;102536.84;6194080;23;20080;-74
2023/12/19 00:26:01;;;;;;;21.88;12.52;;;;;;;8.45;65.66;102539.53;6195255;23;20024;-73
2023/12/19 00:28:31;;;;;;;22.50;12.02;;;;;;;8.45;65.92;102528.81;6194478;23;20533;-73
2023/12/19 00:30:59;;;;;;;19.55;11.00;;;;;;;8.45;65.46;102523.44;6195223;23;20021;-73
2023/12/19 00:33:27;;;;;;;18.95;11.77;;;;;;;8.42;65.75;102523.78;6194684;23;20025;-74
2023/12/19 00:35:55;;;;;;;19.42;11.70;;;;;;;8.42;66.19;102526.47;6193804;23;20051;-72
2023/12/19 00:38:23;;;;;;;21.60;11.75;;;;;;;8.44;66.30;102528.97;6194658;23;20029;-73
2023/12/19 00:40:52;;;;;;;19.42;10.77;;;;;;;8.42;66.30;102531.81;6195369;23;20021;-73
2023/12/19 00:43:20;;;;;;;21.38;11.93;;;;;;;8.43;65.71;102527.28;6193962;23;20398;-73
2023/12/19 00:45:47;;;;;;;16.15;11.25;;;;;;;8.39;65.90;102509.88;6195319;23;20033;-73
2023/12/19 00:48:15;;;;;;;19.75;10.93;;;;;;;8.43;65.58;102512.06;6195221;23;20104;-72
2023/12/19 00:50:43;;;;;;;18.00;11.15;;;;;;;8.43;66.21;102501.34;6194232;23;20017;-70
2023/12/19 00:53:11;;;;;;;20.52;11.32;;;;;;;8.41;66.18;102499.81;6194188;23;20021;-73
2023/12/19 00:55:39;;;;;;;20.70;12.73;;;;;;;8.42;66.26;102502.34;6195612;23;20021;-74
2023/12/19 00:58:08;;;;;;;23.05;12.00;;;;;;;8.41;66.23;102491.78;6194106;23;20095;-75
2023/12/19 01:00:36;;;;;;;23.65;13.25;;;;;;;8.40;65.61;102490.94;6194803;23;20024;-74
2023/12/19 01:03:04;;;;;;;22.25;12.50;;;;;;;8.42;66.01;102485.44;6194448;23;20048;-72
2023/12/19 01:05:32;;;;;;;20.35;11.75;;;;;;;8.41;66.65;102487.28;6193121;23;20133;-73
2023/12/19 01:08:00;;;;;;;20.40;11.23;;;;;;;8.41;66.33;102481.91;6194147;23;20025;-73
2023/12/19 01:10:28;;;;;;;19.90;11.95;;;;;;;8.41;66.62;102473.03;6194829;23;20029;-73
2023/12/19 01:12:56;;;;;;;18.90;11.60;;;;;;;8.41;66.65;102463.16;6194495;23;20033;-73
2023/12/19 01:15:26;;;;;;;16.73;11.52;;;;;;;8.43;66.46;102463.00;6195092;23;20029;-73
2023/12/19 01:17:54;;;;;;;20.25;12.15;;;;;;;8.41;66.34;102460.47;6194887;23;20029;-73
2023/12/19 01:20:22;;;;;;;21.85;11.68;;;;;;;8.36;66.53;102443.25;6195360;23;20024;-73
2023/12/19 01:22:50;;;;;;;21.38;12.20;;;;;;;8.39;66.27;102459.81;6196396;23;20486;-73
2023/12/19 01:25:18;;;;;;;20.50;12.30;;;;;;;8.40;66.36;102464.16;6196275;23;20028;-72
2023/12/19 01:27:46;;;;;;;19.75;12.63;;;;;;;8.41;66.44;102463.16;6195645;23;20036;-73
2023/12/19 01:30:14;;;;;;;20.20;12.27;;;;;;;8.40;66.52;102450.78;6197221;23;20025;-73
2023/12/19 01:32:43;;;;;;;22.50;13.18;;;;;;;8.42;66.12;102450.59;6196899;23;20073;-73
2023/12/19 01:35:12;;;;;;;23.38;13.30;;;;;;;8.42;66.47;102458.63;6195720;23;20462;-73
2023/12/19 01:37:39;;;;;;;19.20;12.27;;;;;;;8.41;66.22;102449.75;6195737;23;20461;-72
2023/12/19 01:40:08;;;;;;;26.73;14.65;;;;;;;8.40;66.91;102458.81;6196852;23;20431;-73
2023/12/19 01:42:36;;;;;;;21.48;11.98;;;;;;;8.40;66.74;102441.91;6195260;23;20036;-72
2023/12/19 01:45:09;;;;;;;24.50;12.60;;;;;;;8.39;66.54;102440.22;6196405;23;20029;-72
2023/12/19 01:47:41;;;;;;;21.83;12.75;;;;;;;8.38;66.30;102450.09;6195038;23;20025;-73
2023/12/19 01:50:11;;;;;;;18.85;11.98;;;;;;;8.39;66.85;102448.25;6196405;23;20080;-73
2023/12/19 01:52:42;;;;;;;22.63;12.50;;;;;;;8.38;66.93;102441.22;6195621;23;20024;-73
2023/12/19 01:55:11;;;;;;;30.00;12.93;;;;;;;8.39;66.77;102448.25;6195645;23;20052;-72
2023/12/19 01:57:39;;;;;;;20.70;12.30;;;;;;;8.38;67.19;102438.53;6195399;23;20025;-73
2023/12/19 02:00:08;;;;;;;21.13;12.60;;;;;;;8.37;66.88;102434.19;6196418;23;20025;-72
2023/12/19 02:02:36;;;;;;;22.05;12.38;;;;;;;8.37;67.46;102432.34;6195959;23;20052;-73
2023/12/19 02:05:05;;;;;;;19.45;12.30;;;;;;;8.37;66.62;102437.72;6195180;23;20039;-72
2023/12/19 02:07:34;;;;;;;22.90;14.05;;;;;;;8.38;66.56;102427.84;6195057;23;20025;-73
2023/12/19 02:10:03;;;;;;;22.95;12.73;;;;;;;8.37;67.21;102424.31;6196760;23;20290;-72
2023/12/19 02:12:31;;;;;;;27.67;12.75;;;;;;;8.38;66.44;102430.50;6195422;23;20083;-73
2023/12/19 02:14:59;;;;;;;22.73;12.13;;;;;;;8.36;66.91;102427.16;6195967;23;20048;-72
2023/12/19 02:17:26;;;;;;;28.00;14.05;;;;;;;8.36;66.99;102429.84;6195377;23;20080;-73
2023/12/19 02:19:54;;;;;;;21.17;11.70;;;;;;;8.34;66.80;102430.00;6195870;23;20028;-72
2023/12/19 02:22:22;;;;;;;26.65;13.15;;;;;;;8.34;67.59;102424.66;6195986;23;20021;-73
2023/12/19 02:24:52;;;;;;;23.83;12.68;;;;;;;8.34;66.56;102427.34;6195806;23;20061;-73
2023/12/19 02:27:21;;;;;;;22.00;13.82;;;;;;;8.33;67.52;102406.06;6195415;23;20020;-71
2023/12/19 02:29:49;;;;;;;21.15;12.43;;;;;;;8.35;67.15;102404.06;6195961;23;20037;-73
2023/12/19 02:32:17;;;;;;;22.10;12.75;;;;;;;8.33;67.37;102396.19;6195892;23;20099;-73
2023/12/19 02:34:45;;;;;;;23.83;12.70;;;;;;;8.35;67.75;102382.63;6195412;23;20088;-73
2023/12/19 02:37:13;;;;;;;22.95;13.88;;;;;;;8.35;66.96;102388.00;6195637;23;20029;-73
2023/12/19 02:39:41;;;;;;;21.92;13.35;;;;;;;8.35;67.46;102399.53;6195175;23;20021;-73
2023/12/19 02:42:10;;;;;;;21.40;12.40;;;;;;;8.34;67.10;102384.47;6196095;23;20078;-73
2023/12/19 02:44:38;;;;;;;24.63;12.88;;;;;;;8.35;67.85;102398.69;6195875;23;20091;-73
2023/12/19 02:47:06;;;;;;;24.88;12.63;;;;;;;8.36;67.35;102390.50;6196062;23;20056;-74
2023/12/19 02:49:34;;;;;;;19.50;11.77;;;;;;;8.33;67.04;102398.88;6195659;23;20035;-73
2023/12/19 02:52:02;;;;;;;21.58;11.73;;;;;;;8.35;67.50;102394.19;6196306;23;20027;-74
2023/12/19 02:54:30;;;;;;;19.10;12.40;;;;;;;8.34;67.88;102383.63;6195631;23;20020;-74
2023/12/19 02:56:58;;;;;;;23.20;12.50;;;;;;;8.35;68.25;102396.03;6195189;23;20083;-73
2023/12/19 02:59:27;;;;;;;22.20;12.60;;;;;;;8.34;67.92;102380.97;6195858;23;20265;-74
2023/12/19 03:01:55;;;;;;;19.73;12.27;;;;;;;8.34;67.80;102373.75;6196078;23;20017;-74
2023/12/19 03:04:23;;;;;;;16.80;10.60;;;;;;;8.32;67.58;102373.06;6194663;23;20554;-74
2023/12/19 03:06:51;;;;;;;18.77;11.27;;;;;;;8.32;67.63;102362.34;6195337;23;20025;-74
2023/12/19 03:09:19;;;;;;;21.63;12.40;;;;;;;8.32;67.85;102348.94;6194897;23;20025;-74
2023/12/19 03:11:59;;;;;;;19.70;12.10;;;;;;;8.32;68.35;102343.59;6195626;23;20048;-72
2023/12/19 03:14:29;;;;;;;20.58;11.57;;;;;;;8.33;67.86;102349.81;6195917;23;20029;-73
2023/12/19 03:16:56;;;;;;;20.13;11.82;;;;;;;8.33;68.15;102347.97;6195212;23;20025;-74
2023/12/19 03:19:24;;;;;;;20.00;12.02;;;;;;;8.33;67.68;102339.09;6195356;23;20024;-74
2023/12/19 03:21:53;;;;;;;18.42;11.10;;;;;;;8.31;68.40;102338.41;6194665;23;20028;-73
2023/12/19 03:24:20;;;;;;;19.48;11.43;;;;;;;8.31;67.68;102327.69;6195157;23;20370;-73
2023/12/19 03:26:49;;;;;;;20.38;11.52;;;;;;;8.32;68.44;102330.19;6195274;23;20032;-73
2023/12/19 03:29:16;;;;;;;19.30;11.60;;;;;;;8.30;68.05;102312.63;6194266;23;20065;-73
2023/12/19 03:31:46;;;;;;;16.92;10.98;;;;;;;8.31;67.85;102312.47;6195214;23;20017;-74
2023/12/19 03:34:14;;;;;;;20.13;11.02;;;;;;;8.31;68.21;102303.59;6195279;23;20238;-74
2023/12/19 03:36:41;;;;;;;16.60;10.18;;;;;;;8.31;67.96;102293.72;6195272;23;20079;-74
2023/12/19 03:39:09;;;;;;;15.75;10.15;;;;;;;8.32;68.51;102292.69;6195023;23;20052;-74
2023/12/19 03:41:37;;;;;;;19.48;10.95;;;;;;;8.33;67.81;102289.03;6196247;23;20025;-73
2023/12/19 03:44:05;;;;;;;16.45;10.25;;;;;;;8.33;68.21;102290.88;6194952;23;20052;-73
2023/12/19 03:46:33;;;;;;;15.98;10.05;;;;;;;8.33;68.41;102283.69;6195834;23;20055;-73
2023/12/19 03:49:03;;;;;;;15.82;10.15;;;;;;;8.33;68.31;102274.81;6195180;23;20060;-72
2023/12/19 03:51:31;;;;;;;16.45;9.88;;;;;;;8.33;68.54;102275.66;6194403;23;20144;-73
2023/12/19 03:53:59;;;;;;;15.63;9.30;;;;;;;8.35;68.50;102278.16;6194879;23;20068;-72
2023/12/19 03:56:27;;;;;;;15.98;9.80;;;;;;;8.34;67.69;102281.84;6195914;23;20025;-74
2023/12/19 03:58:55;;;;;;;15.93;9.63;;;;;;;8.35;68.18;102267.44;6194382;23;20355;-73
2023/12/19 04:01:24;;;;;;;15.85;9.85;;;;;;;8.32;67.80;102271.28;6195043;23;20025;-72
2023/12/19 04:03:52;;;;;;;15.32;10.55;;;;;;;8.35;68.21;102262.09;6195323;23;20021;-72
2023/12/19 04:06:22;;;;;;;15.25;10.38;;;;;;;8.32;68.51;102257.88;6194845;23;20035;-73
2023/12/19 04:08:49;;;;;;;15.15;9.38;;;;;;;8.32;68.58;102255.19;6194671;23;20091;-73
2023/12/19 04:11:18;;;;;;;16.73;10.73;;;;;;;8.33;68.08;102261.44;6194949;23;20024;-74
2023/12/19 04:13:46;;;;;;;12.98;9.50;;;;;;;8.33;68.59;102250.72;6194415;23;20362;-74
2023/12/19 04:16:14;;;;;;;17.23;10.43;;;;;;;8.32;68.84;102255.19;6195084;23;20024;-74
2023/12/19 04:18:41;;;;;;;15.68;10.50;;;;;;;8.31;68.07;102252.69;6195053;23;20128;-74
2023/12/19 04:21:09;;;;;;;15.63;10.73;;;;;;;8.31;68.53;102252.69;6193895;23;20025;-73
2023/12/19 04:23:39;;;;;;;19.77;11.52;;;;;;;8.31;68.72;102250.00;6194512;23;20024;-74
2023/12/19 04:26:06;;;;;;;17.17;10.82;;;;;;;8.21;68.98;102226.09;6195192;23;20025;-73
2023/12/19 04:28:34;;;;;;;19.38;11.38;;;;;;;8.32;68.67;102251.69;6194635;23;20051;-73
2023/12/19 04:31:02;;;;;;;15.35;10.20;;;;;;;8.34;68.53;102233.63;6194775;23;20017;-73
2023/12/19 04:33:30;;;;;;;18.73;11.50;;;;;;;8.31;68.56;102224.06;6195243;23;20021;-73
2023/12/19 04:35:58;;;;;;;16.52;10.95;;;;;;;8.31;69.04;102208.00;6194046;23;20032;-74
2023/12/19 04:38:25;;;;;;;19.38;11.13;;;;;;;8.32;68.81;102209.66;6194900;23;20052;-75
2023/12/19 04:40:54;;;;;;;19.13;11.07;;;;;;;8.31;68.47;102199.97;6195226;23;20029;-74
2023/12/19 04:43:24;;;;;;;15.35;10.35;;;;;;;8.32;69.01;102196.28;6194526;23;20032;-74
2023/12/19 04:45:51;;;;;;;16.42;10.43;;;;;;;8.31;68.45;102191.91;6195558;23;20021;-74
2023/12/19 04:48:19;;;;;;;17.80;11.68;;;;;;;8.28;68.95;102176.19;6194828;23;20060;-74
2023/12/19 04:50:47;;;;;;;16.98;10.07;;;;;;;8.31;69.04;102183.88;6194195;23;20025;-74
2023/12/19 04:53:15;;;;;;;18.67;11.15;;;;;;;8.29;69.12;102183.22;6194118;23;20075;-74
2023/12/19 04:55:43;;;;;;;15.55;10.13;;;;;;;8.27;69.35;102176.38;6196210;23;20055;-74
2023/12/19 04:58:12;;;;;;;20.55;10.77;;;;;;;8.30;69.30;102176.03;6196376;23;20335;-74
2023/12/19 05:00:39;;;;;;;15.52;10.00;;;;;;;8.28;68.87;102165.50;6196457;23;20021;-74
2023/12/19 05:03:08;;;;;;;18.27;10.57;;;;;;;8.28;69.35;102175.38;6196982;23;20083;-73
2023/12/19 05:05:36;;;;;;;18.77;10.95;;;;;;;8.29;68.91;102177.03;6195584;23;20055;-71
2023/12/19 05:08:04;;;;;;;16.45;10.52;;;;;;;8.30;69.30;102159.97;6196066;23;20028;-73
2023/12/19 05:10:32;;;;;;;17.17;10.52;;;;;;;8.28;68.75;102160.13;6195408;23;20025;-73
2023/12/19 05:13:00;;;;;;;16.50;10.73;;;;;;;8.31;69.56;102150.91;6195354;23;20020;-74
2023/12/19 05:15:32;;;;;;;21.33;11.45;;;;;;;8.30;68.75;102162.63;6196718;23;20072;-74
2023/12/19 05:18:00;;;;;;;22.77;12.02;;;;;;;8.32;69.87;102165.97;6196881;23;20029;-74
2023/12/19 05:20:28;;;;;;;17.33;10.52;;;;;;;8.32;69.60;102163.28;6195322;23;20075;-74
2023/12/19 05:22:56;;;;;;;17.27;11.32;;;;;;;8.30;69.50;102162.63;6196128;23;20027;-73
2023/12/19 05:25:24;;;;;;;22.70;11.48;;;;;;;8.31;69.65;102172.34;6196793;23;20028;-73
2023/12/19 05:27:52;;;;;;;19.42;11.15;;;;;;;8.28;69.30;102168.16;6196458;23;20166;-73
2023/12/19 05:30:20;;;;;;;32.17;11.93;;;;;;;8.31;69.34;102177.69;6197029;23;20087;-72
2023/12/19 05:32:49;;;;;;;24.83;12.10;;;;;;;8.30;69.72;102176.03;6196461;23;20021;-73
2023/12/19 05:35:17;;;;;;;18.67;11.23;;;;;;;8.31;69.76;102181.22;6196165;23;20021;-73
2023/12/19 05:37:45;;;;;;;16.88;10.45;;;;;;;8.31;70.05;102173.16;6195679;23;20075;-72
2023/12/19 05:40:13;;;;;;;18.98;11.55;;;;;;;8.32;69.63;102160.63;6197302;23;20024;-74
2023/12/19 05:42:40;;;;;;;19.65;11.52;;;;;;;8.33;69.66;102162.31;6195538;23;20029;-74
2023/12/19 05:45:10;;;;;;;19.17;10.82;;;;;;;8.32;69.39;102155.25;6197517;23;20095;-73
2023/12/19 05:47:37;;;;;;;18.48;11.23;;;;;;;8.34;69.83;102155.94;6196178;23;20029;-72
2023/12/19 05:50:07;;;;;;;20.30;11.20;;;;;;;8.32;69.92;102145.38;6195725;23;20024;-73
2023/12/19 05:52:35;;;;;;;14.27;9.63;;;;;;;8.37;69.35;102147.56;6194916;23;20162;-74
2023/12/19 05:55:03;;;;;;;19.67;11.18;;;;;;;8.38;69.07;102138.53;6196506;23;20076;-73
2023/12/19 05:57:32;;;;;;;13.98;9.82;;;;;;;8.39;69.18;102124.13;6195750;23;20025;-73
2023/12/19 06:00:01;;;;;;;16.42;10.07;;;;;;;8.51;69.50;102113.84;6196820;23;20052;-73
2023/12/19 06:02:28;;;;;;;15.88;10.63;;;;;;;8.46;69.45;102109.84;6195876;23;20091;-73
2023/12/19 06:04:56;;;;;;;17.33;9.90;;;;;;;8.45;69.39;102116.22;6195193;23;20801;-72
2023/12/19 06:07:25;;;;;;;17.48;10.65;;;;;;;8.51;69.36;102120.03;6195314;23;20025;-67
2023/12/19 06:09:53;;;;;;;17.52;10.55;;;;;;;8.48;69.50;102117.69;6196967;23;20060;-67
2023/12/19 06:12:21;;;;;;;17.23;9.38;;;;;;;8.47;69.26;102122.22;6194667;23;20021;-72
2023/12/19 06:14:49;;;;;;;16.50;9.85;;;;;;;8.45;69.52;102102.81;6195433;23;20431;-71
2023/12/19 06:17:17;;;;;;;16.73;9.02;;;;;;;8.50;69.32;102096.09;6194963;23;20343;-70
2023/12/19 06:19:44;;;;;;;15.15;9.75;;;;;;;8.47;69.17;102094.59;6195208;23;20025;-70
2023/12/19 06:22:12;;;;;;;15.52;9.85;;;;;;;8.45;69.11;102102.81;6196292;23;20388;-71
2023/12/19 06:24:42;;;;;;;15.75;9.10;;;;;;;8.44;69.39;102111.88;6192618;23;20040;-70
2023/12/19 06:27:11;;;;;;;15.00;8.95;;;;;;;8.44;68.95;102097.63;6195384;23;20025;-69
2023/12/19 06:29:39;;;;;;;20.27;10.73;;;;;;;8.44;69.68;102084.25;6195485;23;20379;-68
2023/12/19 06:32:09;;;;;;;17.38;9.20;;;;;;;8.43;69.73;102099.47;6195110;23;20029;-71
2023/12/19 06:34:37;;;;;;;15.43;9.15;;;;;;;8.42;69.44;102103.16;6194245;23;20017;-70
2023/12/19 06:37:05;;;;;;;15.18;9.60;;;;;;;8.42;69.21;102097.81;6195452;23;20033;-68
2023/12/19 06:39:35;;;;;;;17.50;9.13;;;;;;;8.41;70.10;102104.19;6192123;23;20040;-69
2023/12/19 06:42:06;;;;;;;14.27;9.20;;;;;;;8.43;69.90;102091.44;6191145;23;20076;-69
2023/12/19 06:44:33;;;;;;;15.50;10.02;;;;;;;8.42;69.84;102088.94;6192588;23;20071;-69
2023/12/19 06:47:01;;;;;;;13.18;8.93;;;;;;;8.41;69.68;102088.09;6193368;23;20029;-70
2023/12/19 06:49:29;;;;;;;15.40;8.75;;;;;;;8.43;69.90;102096.78;6191944;23;20677;-69
2023/12/19 06:51:57;;;;;;;14.55;8.85;;;;;;;8.47;69.44;102094.59;6191685;23;20036;-67
2023/12/19 06:54:25;;;;;;;15.82;9.10;;;;;;;8.47;69.38;102105.31;6191590;23;20371;-67
2023/12/19 06:56:53;;;;;;;14.02;9.27;;;;;;;8.50;69.73;102101.44;6191500;23;20033;-68
2023/12/19 06:59:22;;;;;;;13.43;9.35;;;;;;;8.45;69.17;102097.44;6191611;23;20044;-67
2023/12/19 07:01:50;;;;;;;20.92;9.23;;;;;;;8.44;69.80;102094.94;6192315;23;20028;-68
2023/12/19 07:04:18;;;;;;;17.90;8.45;;;;;;;8.46;69.38;102087.56;6190054;23;20091;-70
2023/12/19 07:06:46;;;;;;;17.52;8.80;;;;;;;8.45;70.04;102080.53;6191138;23;20076;-71
2023/12/19 07:09:15;;;;;;;16.23;8.77;;;;;;;8.45;69.32;102076.03;6191755;23;20025;-72
2023/12/19 07:11:43;;;;;;;18.00;9.07;;;;;;;8.44;70.17;102079.72;6195553;23;20029;-70
2023/12/19 07:14:10;;;;;;;15.73;8.35;;;;;;;8.43;69.74;102074.53;6195463;23;20025;-70
2023/12/19 07:16:39;;;;;;;13.23;8.18;;;;;;;8.43;69.54;102075.38;6196284;23;20021;-70
2023/12/19 07:19:07;;;;;;;15.32;7.93;;;;;;;8.43;69.71;102075.38;6195240;23;20029;-70
2023/12/19 07:21:36;;;;;;;12.70;8.73;;;;;;;8.43;70.27;102070.00;6194427;23;20087;-69
2023/12/19 07:24:04;;;;;;;15.13;8.93;;;;;;;8.45;69.89;102075.19;6195434;23;20021;-70
2023/12/19 07:26:32;;;;;;;12.70;7.93;;;;;;;8.47;70.01;102068.63;6196611;23;20036;-70
2023/12/19 07:29:02;;;;;;;14.90;8.52;;;;;;;8.44;70.00;102066.31;6195686;23;20091;-70
2023/12/19 07:31:31;;;;;;;12.43;7.53;;;;;;;8.46;69.72;102060.78;6195666;23;20025;-72
2023/12/19 07:34:03;;;;;;;11.35;7.35;;;;;;;8.41;69.98;102053.28;6194470;23;20017;-70
2023/12/19 07:36:32;;;;;;;12.90;7.63;;;;;;;8.44;70.36;102069.00;6190906;23;20025;-70
2023/12/19 07:39:00;;;;;;;12.52;7.88;;;;;;;8.45;70.25;102070.66;6192711;23;20032;-70
2023/12/19 07:41:28;;;;;;;12.65;8.57;;;;;;;8.37;70.28;102043.09;6195419;23;20024;-70
2023/12/19 07:43:57;;;;;;;12.05;6.43;;;;;;;8.46;69.76;102071.50;6194323;23;20052;-70
2023/12/19 07:46:24;;;;;;;15.27;7.82;;;;;;;8.47;69.75;102063.28;6195118;23;20075;-71
2023/12/19 07:48:52;;;;;;;13.05;7.38;;;;;;;8.45;69.70;102070.66;6195059;23;20029;-70
2023/12/19 07:51:24;;;;;;;14.45;7.60;;;;;;;8.47;69.69;102070.50;6193156;23;20021;-71
2023/12/19 07:53:54;;;;;;;11.35;6.97;;;;;;;8.45;70.12;102057.28;6194890;23;20033;-71
2023/12/19 07:56:22;;;;;;;12.43;7.45;;;;;;;8.38;69.62;102040.25;6195345;23;20072;-70
2023/12/19 07:58:50;;;;;;;12.20;6.78;;;;;;;8.47;69.73;102052.56;6193470;23;20032;-70
2023/12/19 08:01:18;;;;;;;11.38;6.53;;;;;;;8.44;70.19;102044.06;6193526;23;20439;-71
2023/12/19 08:03:46;;;;;;;12.32;6.45;;;;;;;8.45;69.69;102035.84;6193457;23;20032;-70
2023/12/19 08:06:14;;;;;;;10.43;6.50;;;;;;;8.45;69.83;102040.38;6192661;23;20020;-70
2023/12/19 08:08:43;;;;;;;11.95;6.60;;;;;;;8.46;70.04;102042.03;6194403;23;20083;-70
2023/12/19 08:11:12;;;;;;;14.23;7.35;;;;;;;8.46;69.99;102042.03;6194196;23;20040;-70
2023/12/19 08:13:40;;;;;;;11.18;6.88;;;;;;;8.46;69.90;102039.34;6193811;23;20052;-70
2023/12/19 08:16:07;;;;;;;11.25;6.90;;;;;;;8.47;70.19;102041.84;6195012;23;20037;-70
2023/12/19 08:18:36;;;;;;;12.68;6.82;;;;;;;8.49;69.99;102036.31;6194024;23;20029;-70
2023/12/19 08:21:04;;;;;;;11.35;6.25;;;;;;;8.61;69.88;102040.25;6193160;23;20085;-70
2023/12/19 08:23:32;;;;;;;13.57;6.68;;;;;;;8.53;69.69;102042.16;6193781;23;20026;-70
2023/12/19 08:26:02;;;;;;;12.15;6.57;;;;;;;8.51;70.06;102046.84;6194942;23;20391;-70
2023/12/19 08:28:30;;;;;;;9.40;6.60;;;;;;;8.54;69.60;102033.94;6193458;23;20111;-70
2023/12/19 08:30:57;;;;;;;9.40;6.25;;;;;;;8.55;69.98;102027.56;6193925;23;20032;-70
2023/12/19 08:33:25;;;;;;;9.27;6.40;;;;;;;8.53;69.86;102010.00;6194773;23;20021;-70
2023/12/19 08:35:53;;;;;;;10.57;6.35;;;;;;;8.56;70.55;102013.16;6192937;23;20032;-70
2023/12/19 08:38:21;;;;;;;10.73;6.60;;;;;;;8.55;70.26;102022.19;6193861;23;20032;-70
2023/12/19 08:40:49;;;;;;;11.35;6.05;;;;;;;8.55;70.45;102034.75;6194472;23;20087;-70
2023/12/19 08:43:20;;;;;;;13.55;6.70;;;;;;;8.55;70.50;102030.25;6193442;23;20079;-70
2023/12/19 08:45:49;;;;;;;12.15;6.70;;;;;;;8.54;69.70;102033.94;6194073;23;20021;-70
2023/12/19 08:48:17;;;;;;;12.50;6.20;;;;;;;8.52;70.17;102032.44;6193656;23;20029;-69
2023/12/19 08:50:45;;;;;;;13.38;6.35;;;;;;;8.51;70.68;102025.41;6193100;23;20029;-72
2023/12/19 08:53:13;;;;;;;12.07;6.38;;;;;;;8.51;70.56;102036.97;6193937;23;20029;-69
2023/12/19 08:55:42;;;;;;;10.05;5.80;;;;;;;8.50;70.31;102032.63;6193831;23;20017;-71
2023/12/19 08:58:10;;;;;;;13.65;5.95;;;;;;;8.50;70.14;102032.63;6193847;23;20025;-71
2023/12/19 09:00:39;;;;;;;13.13;7.45;;;;;;;8.51;70.58;102020.06;6193669;23;20321;-71
2023/12/19 09:03:07;;;;;;;11.48;6.43;;;;;;;8.56;70.77;102012.31;6194247;23;20080;-72
2023/12/19 09:05:35;;;;;;;11.10;6.53;;;;;;;8.65;70.14;102008.56;6193176;23;20067;-72
2023/12/19 09:08:03;;;;;;;11.45;6.32;;;;;;;8.78;69.25;102004.22;6193397;23;20399;-72
2023/12/19 09:10:31;;;;;;;11.13;5.97;;;;;;;8.97;69.04;102013.59;6194387;23;20029;-72
2023/12/19 09:12:59;;;;;;;10.68;5.75;;;;;;;9.17;68.64;102003.16;6193666;23;20025;-72
2023/12/19 09:15:27;;;;;;;10.20;5.10;;;;;;;9.44;67.21;102007.88;6194695;23;20029;-72
2023/12/19 09:17:56;;;;;;;12.02;5.88;;;;;;;9.57;67.14;102009.91;6194351;23;20025;-72
2023/12/19 09:20:24;;;;;;;9.25;5.82;;;;;;;9.76;66.29;102006.63;6192828;23;20048;-72
2023/12/19 09:22:52;;;;;;;8.55;5.15;;;;;;;9.98;66.01;101995.94;6193066;23;20455;-72
2023/12/19 09:25:20;;;;;;;10.05;5.90;;;;;;;10.10;65.07;101989.06;6193949;23;20021;-72
2023/12/19 09:27:48;;;;;;;8.68;5.20;;;;;;;10.25;64.76;101991.72;6193938;23;20079;-72
2023/12/19 09:30:16;;;;;;;10.23;4.90;;;;;;;10.38;64.51;101994.53;6194242;23;20073;-72
2023/12/19 09:32:44;;;;;;;12.05;5.38;;;;;;;10.43;64.26;101994.75;6194131;23;20053;-72
2023/12/19 09:35:14;;;;;;;7.75;5.07;;;;;;;10.49;64.32;101995.84;6192829;23;20075;-72
2023/12/19 09:37:44;;;;;;;7.65;4.57;;;;;;;10.52;64.22;101992.75;6193687;23;20029;-72
2023/12/19 09:40:15;;;;;;;9.05;4.60;;;;;;;10.56;63.90;101981.44;6194784;23;20025;-72
2023/12/19 09:42:44;;;;;;;8.85;4.80;;;;;;;10.54;64.29;101986.16;6195044;23;20035;-72
2023/12/19 09:45:14;;;;;;;7.38;4.40;;;;;;;10.54;63.98;101980.78;6196440;23;20052;-72
2023/12/19 09:47:51;;;;;;;7.82;4.40;;;;;;;10.57;64.17;101976.88;6196166;23;20056;-71
2023/12/19 09:50:23;;;;;;;8.25;4.82;;;;;;;10.56;64.33;101969.84;6195426;23;20076;-72
2023/12/19 09:52:51;;;;;;;5.78;3.97;;;;;;;10.64;63.96;101970.53;6195694;23;20215;-72
2023/12/19 09:55:19;;;;;;;5.15;3.75;;;;;;;10.65;63.83;101964.13;6195587;23;20075;-72
2023/12/19 09:57:48;;;;;;;5.75;3.90;;;;;;;10.65;63.89;101961.44;6195617;23;20104;-72
2023/12/19 10:00:18;;;;;;;6.20;4.07;;;;;;;10.59;63.97;101964.91;6195445;23;20025;-72
2023/12/19 10:02:46;;;;;;;6.47;4.50;;;;;;;10.44;64.29;101948.88;6196580;23;20031;-72
2023/12/19 10:05:14;;;;;;;7.35;3.72;;;;;;;10.37;64.84;101950.69;6194679;23;20041;-73
2023/12/19 10:07:43;;;;;;;5.75;3.72;;;;;;;10.18;65.43;101947.81;6194753;23;20408;-72
2023/12/19 10:10:12;;;;;;;6.88;3.80;;;;;;;10.01;66.08;101944.53;6196138;23;20055;-73
2023/12/19 10:12:48;;;;;;;6.13;3.63;;;;;;;9.88;66.61;101944.41;6194654;23;20454;-73
2023/12/19 10:15:25;;;;;;;4.82;3.45;;;;;;;9.76;67.47;101938.69;6196355;23;20025;-73
2023/12/19 10:18:05;;;;;;;6.70;3.70;;;;;;;9.72;67.50;101937.41;6195268;23;20028;-73
2023/12/19 10:20:33;;;;;;;8.65;3.22;;;;;;;9.66;67.51;101939.00;6194778;23;20031;-72
2023/12/19 10:23:06;;;;;;;4.78;3.30;;;;;;;9.62;68.45;101935.03;6194902;23;20025;-73
2023/12/19 10:25:35;;;;;;;7.03;3.53;;;;;;;9.61;67.67;101933.38;6195779;23;20049;-73
2023/12/19 10:28:14;;;;;;;5.03;3.85;;;;;;;9.49;68.40;101934.03;6195546;23;20025;-73
2023/12/19 10:30:43;;;;;;;4.68;3.47;;;;;;;9.47;68.97;101931.53;6194907;23;20025;-72
2023/12/19 10:33:14;;;;;;;6.85;3.67;;;;;;;9.42;68.61;101925.91;6195458;23;20028;-72
2023/12/19 10:35:44;;;;;;;5.90;3.58;;;;;;;9.27;69.38;101901.78;6194185;23;20116;-72
2023/12/19 10:38:13;;;;;;;6.30;3.30;;;;;;;9.38;68.68;101900.47;6195093;23;20459;-73
2023/12/19 10:40:41;;;;;;;6.63;3.47;;;;;;;9.27;69.26;101890.22;6196113;23;20049;-73
2023/12/19 10:43:09;;;;;;;9.18;3.40;;;;;;;9.30;69.56;101889.84;6194184;23;20324;-72
2023/12/19 10:45:38;;;;;;;5.20;3.30;;;;;;;9.51;68.75;101889.91;6195987;23;20021;-72
2023/12/19 10:48:07;;;;;;;4.45;2.83;;;;;;;9.64;68.21;101890.03;6195230;23;20056;-72
2023/12/19 10:50:36;;;;;;;7.20;3.53;;;;;;;9.79;67.84;101888.13;6194580;23;20466;-71
2023/12/19 10:53:08;;;;;;;5.32;3.40;;;;;;;10.05;66.91;101882.19;6194199;23;20072;-71
2023/12/19 10:55:48;;;;;;;6.03;3.45;;;;;;;10.21;66.34;101870.38;6195294;23;20099;-71
2023/12/19 10:58:20;;;;;;;4.95;3.42;;;;;;;10.33;66.25;101865.28;6195210;23;20553;-72
2023/12/19 11:00:51;;;;;;;5.35;3.38;;;;;;;10.52;65.76;101864.56;6195372;23;20025;-69
2023/12/19 11:03:30;;;;;;;4.97;3.38;;;;;;;10.64;65.35;101854.09;6195180;23;20033;-70
2023/12/19 11:06:06;;;;;;;4.88;3.13;;;;;;;10.71;64.92;101842.38;6193630;23;20079;-71
2023/12/19 11:08:39;;;;;;;4.95;3.08;;;;;;;10.77;64.84;101830.81;6194867;23;20095;-70
2023/12/19 11:11:14;;;;;;;4.20;3.03;;;;;;;10.81;64.37;101816.97;6195646;23;20340;-70
2023/12/19 11:13:43;;;;;;;4.97;2.92;;;;;;;10.84;64.33;101805.81;6195073;23;20029;-71
2023/12/19 11:16:17;;;;;;;4.47;3.28;;;;;;;10.85;64.45;101813.69;6195072;23;20024;-71
2023/12/19 11:18:51;;;;;;;8.32;3.05;;;;;;;10.89;64.00;101800.66;6195278;23;20416;-71
2023/12/19 11:21:23;;;;;;;4.22;2.78;;;;;;;10.90;64.38;101802.31;6193627;23;20021;-71
2023/12/19 11:24:03;;;;;;;4.90;2.78;;;;;;;10.89;63.99;101801.50;6194865;23;20044;-72
2023/12/19 11:26:38;;;;;;;3.50;2.60;;;;;;;10.92;64.41;101795.72;6194217;23;20033;-73
2023/12/19 11:29:06;;;;;;;4.32;2.53;;;;;;;10.90;64.23;101787.03;6195306;23;20021;-73